Strona główna
METAR-TAF:

METAR-TAF

Lotnisko :

Awinion, Francja

Szerokość geograficzna: 43-54-26N, Długość geograficzna: 004-54-07E, wysokość: 38 m

Aktualna obserwacja pogody

Raport powstał 33 minut temu, godzina 11:30 UTC
Wiatr 10 kt od południowy wschód, zmienny między wschód i południowo-południowy wschód
Temperatura 16°C
Wilgotność 68%
Ciśnienie 1014 hPa
Widzialność 10 km lub więcej
Przerywane chmury na wysokości 3700 ft
Zachmurzenie całkowite na wysokości 4300 ft

METAR: LFMV 161130Z AUTO 13010KT 100V160 9999 BKN037 OVC043 16/10 Q1014 BECMG 14015G25KT

czas: 13:03 (12:03 UTC)

Prognoza

Raport powstał 4 godziny i 3 minut temu, godzina 08:00 UTC
Prognoza ważna od 16 godzina 09 UTC do 17 godzina 09 UTC
Wiatr 15 kt od południowy wschód w porywach dochodzący do 25 kt
Widzialność 10 km lub więcej
Zachmurzenie całkowite na wysokości 4500 ft

TAF: LFMV 160800Z 1609/1709 14015G25KT 9999 OVC045

Obserwacja i prognoza pogody dla ponad 4000 lotnisk (raport METAR i TAF).

Dostępne stacje oznaczono żółtymi i czerwonymi punktami na mapie.

Najedź kursorem aby zobaczyć nazwę stacji.

Kliknij aby zobaczyć obserwacje i prognozy pogody.

Aby zmienić mapę: kliknij na zielony przycisk z czarnym krzyżykiem, aby powiększyć; na zielony przycisk z myślnikiem, aby pomniejszyć; na zielone strzałki, aby przejść do map sąsiednich.


METAR-TAF: